Time;durP1;ratioP1;P1;durP2;ratioP2;P2;SDS_P1;SDS_P2;PMS_P1;PMS_P2;Temp;Humidity;BMP_temperature;BMP_pressure;BME280_temperature;BME280_humidity;BME280_pressure;Samples;Min_cycle;Max_cycle;Signal;HPM_P1;HPM_P2
2023/08/05 00:01:15;;;;;;;;;;;;;;;29.48;56.71;100859.03;5081507;27;19919;-86
2023/08/05 00:03:47;;;;;;;;;;;;;;;29.50;56.72;100850.00;5125606;27;19957;-86
2023/08/05 00:06:12;;;;;;;;;;;;;;;29.36;56.75;100823.44;5089010;27;19950;-88
2023/08/05 00:08:38;;;;;;;;;;;;;;;29.45;57.04;100841.16;5082117;28;19977;-88
2023/08/05 00:11:03;;;;;;;;;;;;;;;29.47;56.97;100838.47;5116907;27;20427;-88
2023/08/05 00:13:34;;;;;;;;;;;;;;;29.45;57.17;100833.09;5112321;28;19907;-88
2023/08/05 00:16:08;;;;;;;;;;;;;;;29.44;56.96;100836.69;5094937;28;19959;-88
2023/08/05 00:18:41;;;;;;;;;;;;;;;29.45;57.20;100829.53;5114554;27;19943;-86
2023/08/05 00:21:06;;;;;;;;;;;;;;;29.42;56.98;100839.44;5079222;28;19966;-88
2023/08/05 00:23:32;;;;;;;;;;;;;;;29.43;57.25;100838.50;5113487;28;20372;-88
2023/08/05 00:25:57;;;;;;;;;;;;;;;29.43;57.10;100832.25;5116198;27;19928;-87
2023/08/05 00:28:23;;;;;;;;;;;;;;;29.43;57.04;100829.56;5093648;28;20376;-88
2023/08/05 00:30:49;;;;;;;;;;;;;;;29.44;56.94;100834.00;5084820;28;19919;-88
2023/08/05 00:33:18;;;;;;;;;;;;;;;29.42;57.29;100841.22;5112044;28;19912;-88
2023/08/05 00:35:44;;;;;;;;;;;;;;;29.40;57.43;100835.91;5095345;28;20010;-88
2023/08/05 00:38:09;;;;;;;;;;;;;;;29.41;56.90;100842.16;5120820;28;20128;-89
2023/08/05 00:40:34;;;;;;;;;;;;;;;29.41;56.66;100832.28;5119936;28;20289;-87
2023/08/05 00:43:00;;;;;;;;;;;;;;;29.40;56.75;100838.59;5096388;28;20316;-89
2023/08/05 00:45:25;;;;;;;;;;;;;;;29.40;56.56;100841.28;5094053;28;20369;-87
2023/08/05 00:47:52;;;;;;;;;;;;;;;29.40;56.47;100841.28;5103557;28;19907;-86
2023/08/05 00:50:17;;;;;;;;;;;;;;;29.41;56.44;100837.66;5121299;28;19939;-87
2023/08/05 00:52:43;;;;;;;;;;;;;;;29.40;56.33;100840.38;5092447;28;19911;-86
2023/08/05 00:55:08;;;;;;;;;;;;;;;29.38;56.40;100828.75;5112331;28;20398;-87
2023/08/05 00:57:34;;;;;;;;;;;;;;;29.38;56.23;100826.97;5096611;28;20453;-88
2023/08/05 00:59:59;;;;;;;;;;;;;;;29.39;56.16;100822.47;5120847;28;19923;-88
2023/08/05 01:02:25;;;;;;;;;;;;;;;29.38;56.23;100820.69;5092926;28;19915;-88
2023/08/05 01:04:51;;;;;;;;;;;;;;;29.37;56.22;100819.81;5095201;28;19950;-87
2023/08/05 01:07:17;;;;;;;;;;;;;;;29.36;56.19;100823.44;5093067;28;19912;-88
2023/08/05 01:09:43;;;;;;;;;;;;;;;29.35;56.04;100821.66;5092308;28;19911;-87
2023/08/05 01:12:08;;;;;;;;;;;;;;;29.35;56.14;100816.28;5101255;28;20014;-88
2023/08/05 01:14:34;;;;;;;;;;;;;;;29.37;56.05;100810.88;5108758;28;20666;-87
2023/08/05 01:16:59;;;;;;;;;;;;;;;29.35;55.91;100808.19;5122666;28;20498;-87
2023/08/05 01:19:25;;;;;;;;;;;;;;;29.35;55.83;100812.72;5083488;28;19923;-88
2023/08/05 01:21:53;;;;;;;;;;;;;;;29.34;55.93;100803.75;5119045;28;19918;-87
2023/08/05 01:24:21;;;;;;;;;;;;;;;29.34;55.80;100808.25;5125808;28;20507;-88
2023/08/05 01:26:46;;;;;;;;;;;;;;;29.33;55.90;100811.84;5096233;28;19911;-88
2023/08/05 01:29:11;;;;;;;;;;;;;;;29.31;55.79;100805.63;5095331;28;19960;-87
2023/08/05 01:31:37;;;;;;;;;;;;;;;29.31;55.70;100798.44;5098359;28;19915;-88
2023/08/05 01:34:02;;;;;;;;;;;;;;;29.31;55.60;100809.19;5103831;28;19911;-88
2023/08/05 01:36:28;;;;;;;;;;;;;;;29.31;55.71;100806.50;5091969;28;19912;-87
2023/08/05 01:38:53;;;;;;;;;;;;;;;29.30;55.62;100798.50;5096393;28;20296;-87
2023/08/05 01:41:19;;;;;;;;;;;;;;;29.29;55.77;100799.41;5106440;28;19916;-87
2023/08/05 01:43:44;;;;;;;;;;;;;;;29.28;55.58;100797.63;5099655;28;20469;-87
2023/08/05 01:46:09;;;;;;;;;;;;;;;29.29;55.59;100799.41;5102026;27;19919;-87
2023/08/05 01:48:35;;;;;;;;;;;;;;;29.26;55.56;100796.78;5112849;28;19990;-88
2023/08/05 01:51:00;;;;;;;;;;;;;;;29.26;55.70;100804.84;5117500;27;19955;-87
2023/08/05 01:53:26;;;;;;;;;;;;;;;29.27;55.58;100806.63;5110120;27;20006;-86
2023/08/05 01:55:51;;;;;;;;;;;;;;;29.27;55.55;100812.00;5103542;28;20353;-86
2023/08/05 01:58:16;;;;;;;;;;;;;;;29.25;55.54;100803.94;5114261;28;19916;-87
2023/08/05 02:00:51;;;;;;;;;;;;;;;29.24;55.38;100802.19;5097872;27;19915;-87
2023/08/05 02:03:17;;;;;;;;;;;;;;;29.24;55.37;100804.88;5098293;27;19919;-87
2023/08/05 02:05:42;;;;;;;;;;;;;;;29.23;55.15;100792.34;5114970;27;19936;-87
2023/08/05 02:08:08;;;;;;;;;;;;;;;29.21;55.34;100795.09;5113137;28;19968;-90
2023/08/05 02:10:33;;;;;;;;;;;;;;;29.22;55.26;100794.16;5113681;27;20292;-88
2023/08/05 02:12:58;;;;;;;;;;;;;;;29.20;55.43;100790.59;5095335;28;19918;-88
2023/08/05 02:15:26;;;;;;;;;;;;;;;29.19;55.43;100790.66;5096931;27;19922;-89
2023/08/05 02:17:53;;;;;;;;;;;;;;;29.20;55.58;100792.44;5095587;28;19937;-89
2023/08/05 02:20:19;;;;;;;;;;;;;;;29.18;55.14;100795.13;5094627;27;19991;-88
2023/08/05 02:22:44;;;;;;;;;;;;;;;29.19;55.52;100796.94;5096176;27;20385;-88
2023/08/05 02:25:09;;;;;;;;;;;;;;;29.18;55.48;100796.94;5129300;27;19922;-89
2023/08/05 02:27:35;;;;;;;;;;;;;;;29.18;55.47;100799.63;5125594;27;19947;-87
2023/08/05 02:30:00;;;;;;;;;;;;;;;29.18;55.38;100802.34;5108202;27;20021;-88
2023/08/05 02:32:26;;;;;;;;;;;;;;;29.17;55.29;100792.50;5085679;28;20464;-89
2023/08/05 02:34:51;;;;;;;;;;;;;;;29.16;55.25;100798.78;5116561;27;19911;-88
2023/08/05 02:37:17;;;;;;;;;;;;;;;29.16;55.36;100804.16;5102719;28;20423;-88
2023/08/05 02:39:42;;;;;;;;;;;;;;;29.15;55.42;100803.28;5129468;27;20368;-89
2023/08/05 02:42:07;;;;;;;;;;;;;;;29.14;55.18;100806.00;5119647;27;19919;-88
2023/08/05 02:44:33;;;;;;;;;;;;;;;29.14;55.19;100809.56;5099379;28;19950;-89
2023/08/05 02:46:58;;;;;;;;;;;;;;;29.13;55.23;100805.13;5103639;28;20364;-88
2023/08/05 02:49:26;;;;;;;;;;;;;;;29.13;55.03;100806.94;5100238;28;20028;-88
2023/08/05 02:51:52;;;;;;;;;;;;;;;29.12;55.14;100806.03;5109780;27;19919;-87
2023/08/05 02:54:17;;;;;;;;;;;;;;;29.13;55.26;100809.63;5128446;27;19915;-87
2023/08/05 02:56:42;;;;;;;;;;;;;;;29.12;55.24;100805.16;5094751;27;20385;-89
2023/08/05 02:59:09;;;;;;;;;;;;;;;29.11;55.13;100806.09;5108222;28;19904;-88
2023/08/05 03:01:37;;;;;;;;;;;;;;;29.10;55.28;100802.50;5103206;27;19967;-87
2023/08/05 03:04:03;;;;;;;;;;;;;;;29.10;55.21;100805.19;5102185;27;19920;-87
2023/08/05 03:06:29;;;;;;;;;;;;;;;29.09;54.85;100798.00;5101129;27;19998;-88
2023/08/05 03:08:54;;;;;;;;;;;;;;;29.09;55.03;100799.81;5103648;27;19939;-88
2023/08/05 03:11:21;;;;;;;;;;;;;;;29.08;55.04;100800.72;5101939;27;20374;-87
2023/08/05 03:13:46;;;;;;;;;;;;;;;29.07;54.94;100797.16;5104027;27;19997;-87
2023/08/05 03:16:12;;;;;;;;;;;;;;;29.07;55.22;100799.84;5102810;27;19994;-88
2023/08/05 03:18:38;;;;;;;;;;;;;;;29.07;54.88;100798.97;5099644;28;20414;-88
2023/08/05 03:21:04;;;;;;;;;;;;;;;29.07;54.72;100796.28;5087270;28;19999;-88
2023/08/05 03:23:30;;;;;;;;;;;;;;;29.06;54.73;100792.69;5105384;27;19919;-88
2023/08/05 03:25:56;;;;;;;;;;;;;;;29.05;54.85;100795.44;5105474;28;19912;-88
2023/08/05 03:28:23;;;;;;;;;;;;;;;29.05;54.72;100803.50;5126923;27;19911;-88
2023/08/05 03:30:48;;;;;;;;;;;;;;;29.03;54.69;100801.72;5122757;27;19937;-88
2023/08/05 03:33:13;;;;;;;;;;;;;;;29.02;54.79;100802.66;5099495;27;20455;-88
2023/08/05 03:35:45;;;;;;;;;;;;;;;29.01;54.62;100810.75;5104505;27;19911;-88
2023/08/05 03:38:10;;;;;;;;;;;;;;;29.02;54.82;100802.66;5093538;28;20304;-87
2023/08/05 03:40:36;;;;;;;;;;;;;;;29.01;54.93;100805.38;5088592;27;20411;-87
2023/08/05 03:43:02;;;;;;;;;;;;;;;29.01;55.02;100808.06;5098730;28;19982;-87
2023/08/05 03:45:27;;;;;;;;;;;;;;;29.00;55.06;100806.28;5095881;27;19951;-87
2023/08/05 03:47:53;;;;;;;;;;;;;;;28.99;54.86;100807.19;5103580;28;19911;-88
2023/08/05 03:50:20;;;;;;;;;;;;;;;28.98;55.16;100803.63;5119108;27;19915;-87
2023/08/05 03:52:46;;;;;;;;;;;;;;;28.98;55.12;100816.19;5118014;27;19912;-88
2023/08/05 03:55:11;;;;;;;;;;;;;;;28.97;54.85;100806.34;5100845;27;19917;-88
2023/08/05 03:57:37;;;;;;;;;;;;;;;28.96;54.86;100812.66;5117607;27;19915;-87
2023/08/05 04:00:04;;;;;;;;;;;;;;;28.96;54.66;100807.28;5127932;27;19911;-88
2023/08/05 04:02:29;;;;;;;;;;;;;;;28.96;54.66;100807.28;5111942;27;19998;-88
2023/08/05 04:04:54;;;;;;;;;;;;;;;28.96;54.88;100812.66;5112299;28;20012;-86
2023/08/05 04:07:20;;;;;;;;;;;;;;;28.95;54.81;100810.88;5083214;27;19907;-87
2023/08/05 04:09:48;;;;;;;;;;;;;;;28.94;54.94;100809.09;5118048;27;20392;-86
2023/08/05 04:12:14;;;;;;;;;;;;;;;28.93;54.78;100818.97;5093659;28;20449;-87
2023/08/05 04:14:40;;;;;;;;;;;;;;;28.92;54.98;100809.13;5093987;28;19999;-88
2023/08/05 04:17:06;;;;;;;;;;;;;;;28.92;54.88;100809.13;5121268;27;20358;-86
2023/08/05 04:19:32;;;;;;;;;;;;;;;28.91;55.04;100811.84;5113584;27;19916;-85
2023/08/05 04:22:00;;;;;;;;;;;;;;;28.89;54.88;100809.19;5105586;28;20326;-86
2023/08/05 04:24:27;;;;;;;;;;;;;;;28.88;54.85;100810.13;5095761;28;19915;-86
2023/08/05 04:26:53;;;;;;;;;;;;;;;28.88;54.96;100803.88;5122643;27;20338;-87
2023/08/05 04:29:22;;;;;;;;;;;;;;;28.88;54.51;100810.13;5102856;28;20395;-87
2023/08/05 04:31:48;;;;;;;;;;;;;;;28.88;54.68;100815.50;5097984;28;19932;-85
2023/08/05 04:34:13;;;;;;;;;;;;;;;28.87;54.46;100813.75;5097623;28;19912;-87
2023/08/05 04:36:38;;;;;;;;;;;;;;;28.86;54.66;100809.25;5117232;28;19936;-87
2023/08/05 04:39:04;;;;;;;;;;;;;;;28.87;55.00;100807.44;5100254;28;19922;-88
2023/08/05 04:41:30;;;;;;;;;;;;;;;28.86;54.89;100808.38;5092755;28;20300;-87
2023/08/05 04:43:56;;;;;;;;;;;;;;;28.85;54.88;100811.97;5095895;28;19915;-86
2023/08/05 04:46:22;;;;;;;;;;;;;;;28.85;54.93;100815.56;5116517;28;20009;-87
2023/08/05 04:48:47;;;;;;;;;;;;;;;28.85;54.70;100820.94;5105163;28;20381;-86
2023/08/05 04:51:12;;;;;;;;;;;;;;;28.84;54.73;100819.16;5094789;27;19915;-87
2023/08/05 04:53:38;;;;;;;;;;;;;;;28.83;54.71;100817.41;5089929;28;19918;-86
2023/08/05 04:56:03;;;;;;;;;;;;;;;28.84;55.09;100819.16;5098093;27;19912;-89
2023/08/05 04:58:29;;;;;;;;;;;;;;;28.81;55.31;100814.75;5094711;28;20601;-86
2023/08/05 05:00:57;;;;;;;;;;;;;;;28.83;55.10;100817.41;5121116;27;19923;-86
2023/08/05 05:03:23;;;;;;;;;;;;;;;28.81;55.34;100811.19;5092414;27;19954;-87
2023/08/05 05:05:49;;;;;;;;;;;;;;;28.82;55.40;100811.13;5093434;27;20505;-87
2023/08/05 05:08:14;;;;;;;;;;;;;;;28.81;55.59;100812.06;5099336;28;19954;-86
2023/08/05 05:10:43;;;;;;;;;;;;;;;28.81;55.69;100816.56;5087538;27;19950;-87
2023/08/05 05:13:09;;;;;;;;;;;;;;;28.80;55.40;100814.75;5104492;27;19919;-86
2023/08/05 05:15:34;;;;;;;;;;;;;;;28.80;55.35;100812.94;5103026;27;19967;-87
2023/08/05 05:18:00;;;;;;;;;;;;;;;28.77;56.17;100813.03;5106665;28;19916;-86
2023/08/05 05:20:25;;;;;;;;;;;;;;;28.81;56.46;100817.44;5105653;28;19916;-85
2023/08/05 05:22:51;;;;;;;;;;;;;;;28.77;56.80;100817.53;5103837;27;19911;-86
2023/08/05 05:25:16;;;;;;;;;;;;;;;28.78;57.02;100812.09;5131059;27;19911;-85
2023/08/05 05:27:41;;;;;;;;;;;;;;;28.80;57.10;100817.44;5102169;27;20412;-86
2023/08/05 05:30:07;;;;;;;;;;;;;;;28.60;57.42;100782.94;5115904;27;19911;-89
2023/08/05 05:32:32;;;;;;;;;;;;;;;28.76;57.77;100815.75;5087800;27;19915;-86
2023/08/05 05:34:58;;;;;;;;;;;;;;;28.77;57.96;100817.53;5119416;27;19926;-86
2023/08/05 05:37:23;;;;;;;;;;;;;;;28.76;58.03;100816.63;5087428;27;20282;-86
2023/08/05 05:39:49;;;;;;;;;;;;;;;28.71;58.32;100818.53;5114210;27;20485;-85
2023/08/05 05:42:15;;;;;;;;;;;;;;;28.74;58.07;100807.69;5118737;27;20499;-84
2023/08/05 05:44:40;;;;;;;;;;;;;;;28.75;58.22;100806.81;5120160;27;19911;-85
2023/08/05 05:47:07;;;;;;;;;;;;;;;28.76;58.13;100799.63;5111234;27;20006;-84
2023/08/05 05:49:32;;;;;;;;;;;;;;;28.76;58.18;100797.81;5096093;27;19923;-85
2023/08/05 05:51:58;;;;;;;;;;;;;;;28.76;58.35;100800.50;5102236;28;19918;-84
2023/08/05 05:54:23;;;;;;;;;;;;;;;28.74;58.31;100796.06;5103258;28;19918;-84
2023/08/05 05:56:49;;;;;;;;;;;;;;;28.76;58.18;100797.81;5097780;28;20014;-83
2023/08/05 05:59:14;;;;;;;;;;;;;;;28.74;58.35;100793.38;5107155;27;20361;-85
2023/08/05 06:01:40;;;;;;;;;;;;;;;28.72;58.69;100792.53;5099748;28;19939;-83
2023/08/05 06:04:09;;;;;;;;;;;;;;;28.74;58.54;100785.31;5099399;28;19919;-84
2023/08/05 06:06:35;;;;;;;;;;;;;;;28.74;58.39;100783.50;5103567;28;20371;-84
2023/08/05 06:09:01;;;;;;;;;;;;;;;28.75;58.20;100787.13;5099803;28;20411;-87
2023/08/05 06:11:27;;;;;;;;;;;;;;;28.70;57.90;100784.53;5080060;28;19912;-85
2023/08/05 06:13:52;;;;;;;;;;;;;;;28.70;58.22;100778.25;5100901;28;20392;-83
2023/08/05 06:16:18;;;;;;;;;;;;;;;28.70;58.66;100780.94;5101741;28;19920;-85
2023/08/05 06:18:43;;;;;;;;;;;;;;;28.71;57.68;100783.59;5102521;28;19916;-84
2023/08/05 06:21:09;;;;;;;;;;;;;;;28.70;58.66;100780.94;5114784;27;20041;-85
2023/08/05 06:23:34;;;;;;;;;;;;;;;28.70;58.29;100783.63;5096068;28;20315;-84
2023/08/05 06:26:03;;;;;;;;;;;;;;;28.71;58.33;100785.41;5099326;28;19919;-86
2023/08/05 06:28:28;;;;;;;;;;;;;;;28.68;57.46;100789.03;5101402;28;20403;-86
2023/08/05 06:30:54;;;;;;;;;;;;;;;28.70;57.58;100786.31;5090932;28;20009;-87
2023/08/05 06:33:30;;;;;;;;;;;;;;;28.68;57.52;100786.34;5092565;28;19949;-88
2023/08/05 06:35:56;;;;;;;;;;;;;;;28.68;57.01;100780.97;5109826;28;19955;-85
2023/08/05 06:38:24;;;;;;;;;;;;;;;28.66;56.69;100780.13;5094564;28;20025;-86
2023/08/05 06:40:51;;;;;;;;;;;;;;;28.67;57.35;100781.00;5091479;28;19916;-88
2023/08/05 06:43:17;;;;;;;;;;;;;;;28.63;56.48;100777.50;5088122;28;19912;-88
2023/08/05 06:45:43;;;;;;;;;;;;;;;28.67;56.57;100779.19;5100260;28;20278;-87
2023/08/05 06:48:08;;;;;;;;;;;;;;;28.67;58.22;100781.00;5086803;28;19972;-86
2023/08/05 06:50:34;;;;;;;;;;;;;;;28.63;56.75;100780.16;5088034;28;19965;-88
2023/08/05 06:52:59;;;;;;;;;;;;;;;28.66;57.08;100780.13;5102443;28;19911;-87
2023/08/05 06:55:25;;;;;;;;;;;;;;;28.63;56.79;100777.50;5083881;28;20002;-86
2023/08/05 06:57:50;;;;;;;;;;;;;;;28.67;57.18;100779.19;5096138;28;19912;-89
2023/08/05 07:00:16;;;;;;;;;;;;;;;28.66;56.29;100779.22;5091044;28;19981;-89
2023/08/05 07:02:42;;;;;;;;;;;;;;;28.69;57.28;100780.06;5074042;28;19946;-87
2023/08/05 07:05:08;;;;;;;;;;;;;;;28.69;57.37;100781.88;5091469;28;20302;-86
2023/08/05 07:07:34;;;;;;;;;;;;;;;28.69;56.79;100774.69;5074756;28;20361;-86
2023/08/05 07:10:01;;;;;;;;;;;;;;;28.70;57.33;100780.94;5077362;28;19920;-88
2023/08/05 07:12:27;;;;;;;;;;;;;;;28.71;57.91;100782.72;5074563;28;19908;-89
2023/08/05 07:14:53;;;;;;;;;;;;;;;28.73;57.67;100788.94;5090463;28;19931;-89
2023/08/05 07:17:18;;;;;;;;;;;;;;;28.73;57.32;100789.81;5090714;28;19912;-88
2023/08/05 07:19:44;;;;;;;;;;;;;;;28.72;57.30;100785.34;5092095;28;19907;-89
2023/08/05 07:22:09;;;;;;;;;;;;;;;28.73;56.87;100792.50;5094640;28;19908;-90
2023/08/05 07:24:35;;;;;;;;;;;;;;;28.75;57.09;100787.13;5090380;28;19923;-90
2023/08/05 07:27:00;;;;;;;;;;;;;;;28.73;56.71;100776.38;5094285;28;19958;-88
2023/08/05 07:29:26;;;;;;;;;;;;;;;28.70;56.65;100776.47;5076164;28;19915;-87
2023/08/05 07:31:51;;;;;;;;;;;;;;;28.72;57.03;100771.91;5090280;28;20297;-86
2023/08/05 07:34:17;;;;;;;;;;;;;;;28.72;57.03;100777.28;5090695;28;20377;-87
2023/08/05 07:36:45;;;;;;;;;;;;;;;28.71;56.94;100780.91;5084497;28;20403;-87
2023/08/05 07:39:11;;;;;;;;;;;;;;;28.70;57.22;100783.63;5096109;28;20365;-87
2023/08/05 07:42:03;;;;;;;;;;;;;;;28.71;57.61;100786.28;5096378;28;19915;-86
2023/08/05 07:44:32;;;;;;;;;;;;;;;28.71;57.96;100788.97;5101407;28;19954;-90
2023/08/05 07:49:44;;;;;;;;;;;;;;;28.71;58.10;100786.28;5095122;28;19972;-88
2023/08/05 07:52:13;;;;;;;;;;;;;;;28.69;57.87;100776.50;5099198;27;20452;-85
2023/08/05 07:54:40;;;;;;;;;;;;;;;28.71;58.01;100777.34;5131598;27;19998;-87
2023/08/05 07:57:06;;;;;;;;;;;;;;;28.73;57.66;100783.56;5096429;28;19994;-87
2023/08/05 07:59:36;;;;;;;;;;;;;;;28.71;57.77;100774.66;5085453;27;19963;-86
2023/08/05 08:05:08;;;;;;;;;;;;;;;28.72;57.23;100779.09;5139888;27;20143;-87
2023/08/05 08:08:06;;;;;;;;;;;;;;;28.71;56.67;100770.16;5110691;28;19996;-86
2023/08/05 08:10:59;;;;;;;;;;;;;;;28.73;56.65;100767.44;5096157;28;19945;-88
2023/08/05 08:13:24;;;;;;;;;;;;;;;28.72;56.16;100766.53;5114918;27;19907;-86
2023/08/05 08:15:50;;;;;;;;;;;;;;;28.72;55.79;100768.34;5106879;27;19911;-86
2023/08/05 08:18:15;;;;;;;;;;;;;;;28.73;56.52;100778.19;5098094;28;19919;-89
2023/08/05 08:20:59;;;;;;;;;;;;;;;28.70;56.64;100778.25;5105814;28;19916;-88
2023/08/05 08:23:25;;;;;;;;;;;;;;;28.68;55.48;100780.97;5127338;27;19907;-87
2023/08/05 08:25:50;;;;;;;;;;;;;;;28.69;55.05;100780.06;5100345;28;19939;-88
2023/08/05 08:28:16;;;;;;;;;;;;;;;28.70;55.38;100783.63;5095069;28;20304;-87
2023/08/05 08:30:51;;;;;;;;;;;;;;;28.70;55.19;100784.53;5117680;28;19998;-87
2023/08/05 08:33:19;;;;;;;;;;;;;;;28.72;54.78;100779.09;5097302;28;19908;-87
2023/08/05 08:35:44;;;;;;;;;;;;;;;28.71;54.95;100769.28;5094423;28;19915;-88
2023/08/05 08:38:16;;;;;;;;;;;;;;;28.72;54.87;100781.78;5103331;28;19915;-88
2023/08/05 08:43:51;;;;;;;;;;;;;;;28.68;53.27;100767.53;5108245;28;19915;-86
2023/08/05 08:46:18;;;;;;;;;;;;;;;28.58;53.49;100760.59;5094719;27;19916;-87
2023/08/05 08:51:48;;;;;;;;;;;;;;;28.67;55.26;100756.81;5114144;27;20624;-86
2023/08/05 08:54:47;;;;;;;;;;;;;;;28.68;55.52;100758.56;5107903;28;19912;-85
2023/08/05 08:57:47;;;;;;;;;;;;;;;28.69;55.51;100749.63;5123164;27;19961;-85
2023/08/05 09:00:37;;;;;;;;;;;;;;;28.70;55.62;100751.38;5097574;28;20376;-87
2023/08/05 09:03:04;;;;;;;;;;;;;;;28.72;55.94;100749.53;5108727;27;19915;-88
2023/08/05 09:05:31;;;;;;;;;;;;;;;28.71;55.87;100745.97;5104112;27;19961;-88
2023/08/05 09:07:56;;;;;;;;;;;;;;;28.73;56.00;100738.75;5091397;27;19914;-85
2023/08/05 09:10:23;;;;;;;;;;;;;;;28.77;56.03;100737.78;5122822;27;19912;-87
2023/08/05 09:12:48;;;;;;;;;;;;;;;28.74;56.06;100736.94;5126698;27;19962;-87
2023/08/05 09:15:14;;;;;;;;;;;;;;;28.75;56.78;100733.34;5105639;27;19946;-86
2023/08/05 09:17:40;;;;;;;;;;;;;;;28.75;56.37;100736.94;5097039;28;19994;-88
2023/08/05 09:20:16;;;;;;;;;;;;;;;28.79;55.97;100738.63;5097687;28;20375;-89
2023/08/05 09:23:02;;;;;;;;;;;;;;;28.78;56.93;100738.66;5115171;27;20407;-87
2023/08/05 09:25:29;;;;;;;;;;;;;;;28.78;57.18;100742.22;5095065;28;20358;-89
2023/08/05 09:27:57;;;;;;;;;;;;;;;28.77;57.18;100729.72;5095833;28;19959;-89
2023/08/05 09:30:23;;;;;;;;;;;;;;;28.79;56.65;100733.25;5115376;27;19914;-89
2023/08/05 09:32:48;;;;;;;;;;;;;;;28.83;56.04;100734.09;5096885;27;20045;-91
2023/08/05 09:35:15;;;;;;;;;;;;;;;28.86;56.04;100738.50;5105129;28;19961;-87
2023/08/05 09:37:44;;;;;;;;;;;;;;;28.87;55.98;100741.16;5097546;28;19916;-87
2023/08/05 09:40:19;;;;;;;;;;;;;;;28.86;56.62;100738.50;5109299;27;19925;-87
2023/08/05 09:42:49;;;;;;;;;;;;;;;28.87;56.35;100743.84;5095826;28;20700;-86
2023/08/05 09:45:15;;;;;;;;;;;;;;;28.88;56.08;100740.22;5099408;27;20042;-87
2023/08/05 09:47:42;;;;;;;;;;;;;;;28.89;56.62;100730.34;5106066;27;19911;-87
2023/08/05 09:50:12;;;;;;;;;;;;;;;28.86;56.40;100734.00;5096824;28;19914;-90
2023/08/05 09:52:40;;;;;;;;;;;;;;;28.89;56.73;100727.66;5123052;27;19962;-89
2023/08/05 09:55:14;;;;;;;;;;;;;;;28.91;56.38;100734.75;5099105;27;20378;-90
2023/08/05 09:57:45;;;;;;;;;;;;;;;28.91;57.39;100726.69;5113923;28;19911;-88
2023/08/05 10:00:28;;;;;;;;;;;;;;;28.88;56.80;100726.78;5096869;28;20002;-90
2023/08/05 10:02:53;;;;;;;;;;;;;;;28.94;56.96;100720.41;5095533;28;19907;-90
2023/08/05 10:05:20;;;;;;;;;;;;;;;28.92;57.03;100722.22;5081321;28;20014;-89
2023/08/05 10:07:48;;;;;;;;;;;;;;;28.91;56.90;100715.06;5110004;27;19911;-87
2023/08/05 10:10:24;;;;;;;;;;;;;;;28.92;57.00;100714.16;5113330;27;19918;-88
2023/08/05 10:12:58;;;;;;;;;;;;;;;28.90;57.78;100713.31;5093510;27;19960;-87
2023/08/05 10:15:26;;;;;;;;;;;;;;;28.94;56.82;100715.03;5101575;28;19999;-89
2023/08/05 10:17:52;;;;;;;;;;;;;;;28.95;57.05;100714.97;5125988;27;19911;-87
2023/08/05 10:20:17;;;;;;;;;;;;;;;28.94;57.50;100712.34;5109712;27;20407;-88
2023/08/05 10:23:01;;;;;;;;;;;;;;;28.94;57.45;100717.72;5105772;27;19918;-89
2023/08/05 10:25:45;;;;;;;;;;;;;;;29.01;56.70;100713.94;5123830;27;19939;-89
2023/08/05 10:28:33;;;;;;;;;;;;;;;29.01;56.98;100709.44;5111173;27;19965;-88
2023/08/05 10:31:02;;;;;;;;;;;;;;;28.99;56.93;100705.91;5082207;27;19912;-88
2023/08/05 10:33:29;;;;;;;;;;;;;;;29.00;57.30;100704.13;5101154;28;19912;-87
2023/08/05 10:36:10;;;;;;;;;;;;;;;29.01;57.10;100700.50;5124912;27;19911;-87
2023/08/05 10:38:46;;;;;;;;;;;;;;;29.02;56.89;100699.59;5099805;27;20121;-85
2023/08/05 10:41:14;;;;;;;;;;;;;;;29.03;57.10;100696.84;5106256;27;19938;-87
2023/08/05 10:43:43;;;;;;;;;;;;;;;29.04;57.36;100700.41;5103936;28;19914;-87
2023/08/05 10:46:12;;;;;;;;;;;;;;;29.08;56.86;100696.72;5113868;27;19962;-88
2023/08/05 10:48:47;;;;;;;;;;;;;;;29.07;57.01;100699.47;5117463;27;19915;-87
2023/08/05 10:51:12;;;;;;;;;;;;;;;29.08;56.87;100695.84;5093063;27;19928;-87
2023/08/05 10:53:38;;;;;;;;;;;;;;;29.08;57.17;100695.84;5116792;27;19920;-85
2023/08/05 10:56:07;;;;;;;;;;;;;;;29.06;57.03;100685.13;5115014;27;19965;-87
2023/08/05 10:58:34;;;;;;;;;;;;;;;29.08;57.38;100685.97;5115606;27;19911;-85
2023/08/05 11:01:02;;;;;;;;;;;;;;;29.10;57.17;100683.28;5126544;27;19926;-87
2023/08/05 11:03:41;;;;;;;;;;;;;;;29.10;56.74;100681.47;5113525;27;19914;-87
2023/08/05 11:06:18;;;;;;;;;;;;;;;29.09;57.36;100689.56;5112756;27;19941;-86
2023/08/05 11:08:43;;;;;;;;;;;;;;;29.12;56.88;100676.06;5107721;27;19960;-86
2023/08/05 11:11:10;;;;;;;;;;;;;;;29.08;57.64;100685.09;5118963;27;20010;-88
2023/08/05 11:13:36;;;;;;;;;;;;;;;29.11;57.18;100682.38;5125843;27;19915;-87
2023/08/05 11:16:11;;;;;;;;;;;;;;;29.12;57.74;100671.56;5104685;27;19980;-87
2023/08/05 11:19:09;;;;;;;;;;;;;;;29.16;56.87;100677.78;5115935;27;19919;-87
2023/08/05 11:21:54;;;;;;;;;;;;;;;29.15;56.96;100673.34;5123365;27;19919;-88
2023/08/05 11:24:20;;;;;;;;;;;;;;;29.15;57.13;100674.22;5120693;27;19972;-88
2023/08/05 11:26:49;;;;;;;;;;;;;;;29.13;57.30;100665.28;5098058;27;19916;-88
2023/08/05 11:29:14;;;;;;;;;;;;;;;29.14;57.70;100666.16;5108608;27;19915;-89
2023/08/05 11:31:57;;;;;;;;;;;;;;;29.16;57.99;100657.13;5094197;28;21856;-88
2023/08/05 11:34:31;;;;;;;;;;;;;;;29.15;57.92;100657.19;5109531;28;19915;-89
2023/08/05 11:37:03;;;;;;;;;;;;;;;29.18;57.19;100655.28;5113178;28;19915;-86
2023/08/05 11:39:28;;;;;;;;;;;;;;;29.21;57.31;100649.84;5113714;28;19911;-87
2023/08/05 11:41:55;;;;;;;;;;;;;;;29.22;57.03;100648.91;5126174;27;20380;-88
2023/08/05 11:44:23;;;;;;;;;;;;;;;29.21;57.87;100647.16;5102717;27;19911;-88
2023/08/05 11:46:48;;;;;;;;;;;;;;;29.24;57.18;100646.19;5121845;27;19911;-86
2023/08/05 11:49:14;;;;;;;;;;;;;;;29.21;57.96;100644.47;5094366;28;20420;-87
2023/08/05 11:51:47;;;;;;;;;;;;;;;29.25;57.76;100641.69;5107736;28;19933;-87
2023/08/05 11:54:13;;;;;;;;;;;;;;;29.26;57.01;100641.66;5094817;28;19947;-87
2023/08/05 11:56:38;;;;;;;;;;;;;;;29.27;57.46;100634.47;5105854;27;20002;-87
2023/08/05 11:59:03;;;;;;;;;;;;;;;29.29;57.33;100632.63;5131527;27;19907;-87
2023/08/05 12:01:29;;;;;;;;;;;;;;;29.29;57.37;100636.19;5093979;28;20286;-89
2023/08/05 12:03:57;;;;;;;;;;;;;;;29.29;57.17;100629.94;5093456;28;19983;-87
2023/08/05 12:06:27;;;;;;;;;;;;;;;29.35;57.04;100621.72;5114372;27;20375;-86
2023/08/05 12:08:58;;;;;;;;;;;;;;;29.33;57.35;100623.56;5101590;28;19911;-89
2023/08/05 12:11:24;;;;;;;;;;;;;;;29.33;57.06;100616.34;5096099;27;20349;-86
2023/08/05 12:13:49;;;;;;;;;;;;;;;29.34;57.03;100611.88;5120842;27;19911;-88
2023/08/05 12:16:18;;;;;;;;;;;;;;;29.33;57.68;100605.59;5100518;28;19911;-88
2023/08/05 12:18:44;;;;;;;;;;;;;;;29.36;57.00;100599.28;5103553;27;20338;-87
2023/08/05 12:21:09;;;;;;;;;;;;;;;29.31;57.53;100595.81;5106491;27;19945;-88
2023/08/05 12:23:41;;;;;;;;;;;;;;;29.35;57.35;100593.00;5110497;28;19978;-87
2023/08/05 12:26:27;;;;;;;;;;;;;;;29.37;57.13;100601.03;5106995;27;19912;-87
2023/08/05 12:28:53;;;;;;;;;;;;;;;29.37;57.71;100595.66;5103039;27;19907;-87
2023/08/05 12:31:18;;;;;;;;;;;;;;;29.38;57.49;100589.34;5082708;28;20295;-88
2023/08/05 12:33:50;;;;;;;;;;;;;;;29.36;57.58;100592.09;5118804;28;19908;-87
2023/08/05 12:36:15;;;;;;;;;;;;;;;29.36;57.44;100581.31;5082155;28;19923;-88
2023/08/05 12:38:41;;;;;;;;;;;;;;;29.39;57.03;100578.53;5122777;28;19911;-89
2023/08/05 12:41:06;;;;;;;;;;;;;;;29.40;57.11;100587.50;5099867;28;19918;-88
2023/08/05 12:43:32;;;;;;;;;;;;;;;29.35;57.54;100581.34;5078544;28;19912;-87
2023/08/05 12:45:57;;;;;;;;;;;;;;;29.37;57.32;100577.69;5115327;28;19911;-88
2023/08/05 12:48:24;;;;;;;;;;;;;;;29.39;57.13;100578.53;5078577;28;19907;-87
2023/08/05 12:50:51;;;;;;;;;;;;;;;29.40;57.24;100576.72;5095961;28;19915;-84